Private Wetterstation Wechselburg
Wetterdaten: Woche 13.03.23 - 19.03.23 (KW11)
Datum Zeit Temp. +2m Bodentemp. Temp.+5cm Temp. Wind Windchill X Diff Temp. Feuchte +2m Feuchte +5cm Luftdruck Regen Wind Richtung Sonnenschein Taupunkt Windchill Windben
13.03.2023 00:00 7,9 C 7,2 C 7,7 C 8,0 C 8,0 C 0,1 C 83 % 66 % 1010,4 hPa 0,0 l/m 1,6 km/h (1 Bft) W-SW 0,00 h 5,2 C 8,0 C 5,0 km/h (1 Bft)
13.03.2023 01:00 8,2 C 7,3 C 7,9 C 8,2 C 8,2 C 0,0 C 81 % 64 % 1010,2 hPa 0,0 l/m 2,3 km/h (1 Bft) SO 0,00 h 5,2 C 8,2 C 5,4 km/h (1 Bft)
13.03.2023 02:00 8,2 C 7,4 C 7,9 C 8,2 C 8,2 C 0,0 C 80 % 63 % 1009,6 hPa 0,0 l/m 2,5 km/h (1 Bft) S-SO 0,00 h 5,0 C 8,2 C 5,7 km/h (1 Bft)
13.03.2023 03:00 8,4 C 7,4 C 7,9 C 8,2 C 7,9 C 0,0 C 80 % 63 % 1008,9 hPa 0,0 l/m 5,3 km/h (1 Bft) S-SO 0,00 h 5,1 C 7,3 C 7,5 km/h (2 Bft)
13.03.2023 04:00 8,5 C 7,5 C 7,9 C 8,4 C 8,1 C 0,0 C 79 % 63 % 1008,0 hPa 0,0 l/m 5,0 km/h (1 Bft) S 0,00 h 5,1 C 7,7 C 5,6 km/h (1 Bft)
13.03.2023 05:00 8,8 C 7,6 C 8,2 C 8,8 C 8,8 C 0,0 C 79 % 64 % 1007,1 hPa 0,0 l/m 3,8 km/h (1 Bft) SO 0,00 h 5,4 C 8,7 C 6,0 km/h (2 Bft)
13.03.2023 06:00 9,3 C 7,7 C 8,8 C 9,2 C 8,8 C 0,0 C 78 % 61 % 1005,6 hPa 0,0 l/m 6,4 km/h (2 Bft) S 0,00 h 5,6 C 8,0 C 9,4 km/h (2 Bft)
13.03.2023 07:00 9,8 C 7,8 C 9,2 C 9,4 C 8,4 C 0,0 C 77 % 64 % 1004,5 hPa 0,0 l/m 8,5 km/h (2 Bft) S-SO 0,00 h 6,1 C 7,1 C 12,7 km/h (3 Bft)
13.03.2023 08:00 10,2 C 8,0 C 9,8 C 9,7 C 8,9 C 0,0 C 79 % 66 % 1004,1 hPa 0,0 l/m 9,1 km/h (2 Bft) S 0,00 h 6,7 C 7,6 C 13,4 km/h (3 Bft)
13.03.2023 09:00 10,9 C 8,1 C 10,9 C 11,2 C 11,0 C 0,3 C 79 % 63 % 1004,0 hPa 0,0 l/m 8,7 km/h (2 Bft) O-NO 0,00 h 7,4 C 11,0 C 13,7 km/h (3 Bft)
13.03.2023 10:00 11,2 C 8,3 C 11,4 C 12,0 C 11,9 C 0,7 C 80 % 64 % 1003,4 hPa 0,0 l/m 7,0 km/h (2 Bft) SO 0,00 h 7,9 C 11,9 C 10,3 km/h (2 Bft)
13.03.2023 11:00 12,3 C 8,4 C 12,6 C 13,6 C 13,6 C 1,3 C 80 % 63 % 1003,4 hPa 0,0 l/m 7,5 km/h (2 Bft) S-SW 0,00 h 8,9 C 13,6 C 12,0 km/h (2 Bft)
13.03.2023 12:00 13,2 C 8,5 C 13,6 C 14,2 C 14,2 C 1,0 C 78 % 62 % 1003,2 hPa 0,0 l/m 11,9 km/h (2 Bft) SW 0,00 h 9,5 C 14,2 C 18,4 km/h (3 Bft)
13.03.2023 13:00 15,0 C 8,8 C 15,2 C 18,7 C 18,7 C 3,8 C 73 % 57 % 1002,5 hPa 0,0 l/m 8,6 km/h (2 Bft) W-SW 1,00 h 10,2 C 18,7 C 10,5 km/h (2 Bft)
13.03.2023 14:00 15,7 C 9,0 C 15,7 C 18,1 C 18,1 C 2,4 C 70 % 55 % 1001,8 hPa 0,0 l/m 9,2 km/h (2 Bft) W-SW 0,08 h 10,3 C 18,1 C 10,9 km/h (2 Bft)
13.03.2023 15:00 14,9 C 9,3 C 14,7 C 15,7 C 15,7 C 0,8 C 72 % 58 % 1001,1 hPa 0,0 l/m 5,9 km/h (2 Bft) S-SO 0,00 h 10,0 C 15,7 C 8,5 km/h (2 Bft)
13.03.2023 16:00 14,8 C 9,6 C 14,6 C 15,6 C 15,6 C 0,9 C 73 % 59 % 1000,7 hPa 0,0 l/m 4,8 km/h (1 Bft) SO 0,00 h 10,1 C 15,6 C 7,8 km/h (2 Bft)
13.03.2023 17:00 14,9 C 9,8 C 14,0 C 15,4 C 15,4 C 0,5 C 73 % 61 % 999,1 hPa 0,0 l/m 3,4 km/h (1 Bft) S 0,08 h 10,0 C 15,4 C 4,4 km/h (1 Bft)
13.03.2023 18:00 14,8 C 9,9 C 13,3 C 14,6 C 14,4 C 0,0 C 72 % 61 % 998,5 hPa 0,0 l/m 5,6 km/h (1 Bft) S 0,00 h 9,7 C 14,4 C 6,7 km/h (2 Bft)
13.03.2023 19:00 14,5 C 10,2 C 13,0 C 14,2 C 13,6 C 0,0 C 73 % 66 % 997,8 hPa 1,4 l/m 4,6 km/h (1 Bft) S 0,00 h 9,7 C 13,6 C 4,8 km/h (1 Bft)
13.03.2023 20:00 11,4 C 10,6 C 10,2 C 10,9 C 9,6 C 0,0 C 84 % 86 % 998,9 hPa 2,7 l/m 7,4 km/h (2 Bft) S 0,00 h 8,8 C 8,9 C 12,9 km/h (3 Bft)
13.03.2023 21:00 10,7 C 10,7 C 9,9 C 10,4 C 9,6 C 0,0 C 86 % 90 % 997,9 hPa 0,7 l/m 4,8 km/h (1 Bft) SO 0,00 h 8,5 C 9,1 C 5,2 km/h (1 Bft)
13.03.2023 22:00 10,6 C 10,8 C 9,9 C 10,4 C 10,1 C 0,0 C 88 % 84 % 998,0 hPa 0,7 l/m 3,0 km/h (1 Bft) S 0,00 h 8,6 C 9,9 C 4,7 km/h (1 Bft)
13.03.2023 23:00 10,9 C 10,9 C 10,3 C 10,7 C 10,3 C 0,0 C 88 % 80 % 998,2 hPa 2,1 l/m 4,2 km/h (1 Bft) S-SO 0,00 h 9,0 C 10,2 C 5,7 km/h (1 Bft)
14.03.2023 00:00 10,5 C 10,9 C 9,9 C 10,4 C 10,2 C 0,0 C 88 % 81 % 996,1 hPa 0,0 l/m 1,7 km/h (1 Bft) O-NO 0,00 h 8,6 C 10,2 C 3,1 km/h (1 Bft)
14.03.2023 01:00 9,8 C 10,9 C 8,8 C 9,6 C 9,4 C 0,0 C 88 % 81 % 995,7 hPa 0,0 l/m 0,0 km/h (0 Bft) N 0,00 h 7,9 C 9,4 C 0,0 km/h (0 Bft)
14.03.2023 02:00 9,6 C 10,8 C 9,0 C 9,4 C 9,1 C 0,0 C 89 % 81 % 995,6 hPa 0,0 l/m 5,3 km/h (1 Bft) S-SO 0,00 h 7,8 C 8,5 C 9,1 km/h (2 Bft)
14.03.2023 03:00 10,5 C 10,5 C 9,6 C 10,9 C 10,9 C 0,4 C 86 % 79 % 995,1 hPa 0,0 l/m 5,2 km/h (1 Bft) SO 0,00 h 8,3 C 10,8 C 7,8 km/h (2 Bft)
14.03.2023 04:00 10,4 C 10,4 C 9,4 C 10,5 C 10,5 C 0,1 C 83 % 78 % 994,7 hPa 0,0 l/m 2,7 km/h (1 Bft) S-SO 0,00 h 7,7 C 10,5 C 6,2 km/h (2 Bft)
14.03.2023 05:00 10,3 C 10,4 C 9,0 C 10,3 C 10,1 C 0,0 C 82 % 78 % 994,3 hPa 0,0 l/m 5,0 km/h (1 Bft) S-SO 0,00 h 7,3 C 9,9 C 6,8 km/h (2 Bft)
14.03.2023 06:00 10,2 C 10,4 C 8,9 C 10,2 C 10,1 C 0,0 C 81 % 78 % 994,0 hPa 0,0 l/m 3,9 km/h (1 Bft) S 0,00 h 7,0 C 10,0 C 7,4 km/h (2 Bft)
14.03.2023 07:00 10,4 C 10,4 C 9,4 C 10,5 C 10,5 C 0,2 C 79 % 78 % 993,9 hPa 0,0 l/m 2,8 km/h (1 Bft) SO 0,00 h 7,0 C 10,5 C 6,0 km/h (2 Bft)
14.03.2023 08:00 10,9 C 10,3 C 10,1 C 11,5 C 11,5 C 0,6 C 77 % 77 % 994,4 hPa 0,0 l/m 4,0 km/h (1 Bft) SO 0,00 h 7,0 C 11,5 C 6,9 km/h (2 Bft)
14.03.2023 09:00 11,4 C 10,3 C 12,5 C 12,7 C 12,7 C 1,3 C 74 % 61 % 994,4 hPa 0,0 l/m 3,5 km/h (1 Bft) SW 0,00 h 7,0 C 12,7 C 6,5 km/h (2 Bft)
14.03.2023 10:00 11,7 C 10,3 C 11,7 C 12,8 C 12,8 C 1,0 C 72 % 52 % 994,5 hPa 0,0 l/m 4,2 km/h (1 Bft) SO 0,00 h 6,9 C 12,8 C 5,9 km/h (2 Bft)
14.03.2023 11:00 12,2 C 10,2 C 12,3 C 13,9 C 13,9 C 1,7 C 71 % 52 % 994,6 hPa 0,0 l/m 5,0 km/h (1 Bft) SW 0,00 h 7,0 C 13,9 C 8,1 km/h (2 Bft)
14.03.2023 12:00 12,9 C 10,3 C 13,2 C 14,9 C 14,9 C 2,0 C 69 % 50 % 994,6 hPa 0,0 l/m 7,0 km/h (2 Bft) SW 0,00 h 7,3 C 14,9 C 10,8 km/h (2 Bft)
14.03.2023 13:00 12,5 C 10,3 C 12,6 C 13,7 C 13,6 C 1,2 C 70 % 52 % 994,5 hPa 0,0 l/m 7,2 km/h (2 Bft) S 0,00 h 7,2 C 13,6 C 10,1 km/h (2 Bft)
14.03.2023 14:00 13,0 C 10,4 C 13,1 C 15,1 C 15,1 C 2,1 C 69 % 52 % 993,8 hPa 0,0 l/m 4,7 km/h (1 Bft) S 0,00 h 7,5 C 15,1 C 7,9 km/h (2 Bft)
14.03.2023 15:00 13,4 C 10,4 C 12,9 C 15,2 C 15,2 C 1,8 C 67 % 51 % 994,1 hPa 0,0 l/m 5,6 km/h (1 Bft) SW 0,00 h 7,4 C 15,2 C 6,6 km/h (2 Bft)
14.03.2023 16:00 12,4 C 10,5 C 11,6 C 12,4 C 12,0 C 0,2 C 72 % 59 % 994,2 hPa 0,0 l/m 6,1 km/h (2 Bft) W-SW 0,00 h 7,4 C 11,7 C 11,9 km/h (2 Bft)
14.03.2023 17:00 7,0 C 11,0 C 5,9 C 6,4 C 5,0 C 0,0 C 81 % 76 % 997,4 hPa 2,1 l/m 6,4 km/h (2 Bft) W-SW 0,00 h 4,0 C 4,0 C 14,3 km/h (3 Bft)
14.03.2023 18:00 3,8 C 10,8 C 3,4 C 3,4 C 2,8 C 0,0 C 86 % 77 % 1001,4 hPa 0,0 l/m 3,2 km/h (1 Bft) SW 0,00 h 1,6 C 2,6 C 4,1 km/h (1 Bft)
14.03.2023 19:00 2,9 C 10,5 C 2,7 C 2,7 C 2,3 C 0,0 C 87 % 78 % 1004,0 hPa 0,0 l/m 2,2 km/h (1 Bft) W-SW 0,00 h 1,0 C 2,3 C 3,3 km/h (1 Bft)
14.03.2023 20:00 2,9 C 10,1 C 2,6 C 3,2 C 3,2 C 0,3 C 87 % 75 % 1005,7 hPa 0,0 l/m 1,3 km/h (1 Bft) W-SW 0,00 h 1,0 C 3,2 C 2,7 km/h (1 Bft)
14.03.2023 21:00 2,8 C 9,9 C 2,3 C 3,1 C 3,1 C 0,3 C 87 % 72 % 1007,0 hPa 0,0 l/m 0,2 km/h (0 Bft) N 0,00 h 0,8 C 3,1 C 0,3 km/h (0 Bft)
14.03.2023 22:00 2,6 C 9,7 C 0,8 C 2,3 C 1,7 C 0,0 C 83 % 69 % 1008,1 hPa 0,0 l/m 0,2 km/h (0 Bft) N 0,00 h -0,0 C 1,7 C 0,3 km/h (0 Bft)
14.03.2023 23:00 1,9 C 9,6 C 0,7 C 1,6 C 0,9 C 0,0 C 81 % 69 % 1008,9 hPa 0,0 l/m 0,0 km/h (0 Bft) N 0,00 h -1,0 C 0,9 C 0,0 km/h (0 Bft)
15.03.2023 00:00 2,2 C 9,5 C 1,3 C 2,1 C 1,9 C 0,0 C 83 % 71 % 1009,7 hPa 0,0 l/m 0,4 km/h (0 Bft) S 0,00 h -0,4 C 1,9 C 1,4 km/h (1 Bft)
15.03.2023 01:00 2,4 C 9,3 C 0,9 C 2,2 C 1,7 C 0,0 C 81 % 69 % 1010,3 hPa 0,0 l/m 0,4 km/h (0 Bft) N 0,00 h -0,6 C 1,7 C 0,2 km/h (0 Bft)
15.03.2023 02:00 1,7 C 9,2 C -0,0 C 1,2 C 0,4 C 0,0 C 80 % 68 % 1010,8 hPa 0,0 l/m 0,0 km/h (0 Bft) N 0,00 h -1,4 C 0,4 C 0,0 km/h (0 Bft)
15.03.2023 03:00 1,3 C 9,1 C -0,4 C 0,8 C -0,2 C 0,0 C 81 % 68 % 1011,1 hPa 0,0 l/m 0,0 km/h (0 Bft) N 0,00 h -1,6 C -0,2 C 0,1 km/h (0 Bft)
15.03.2023 04:00 0,8 C 8,9 C -1,0 C 0,3 C -0,9 C 0,0 C 81 % 68 % 1011,8 hPa 0,0 l/m 0,0 km/h (0 Bft) N 0,00 h -2,1 C -0,9 C 0,0 km/h (0 Bft)
15.03.2023 05:00 0,4 C 8,8 C -1,7 C -0,2 C -1,5 C 0,0 C 82 % 68 % 1012,3 hPa 0,0 l/m 0,0 km/h (0 Bft) N 0,00 h -2,4 C -1,5 C 0,0 km/h (0 Bft)
15.03.2023 06:00 -0,1 C 8,8 C -1,7 C -0,6 C -1,7 C 0,0 C 83 % 68 % 1013,1 hPa 0,0 l/m 0,0 km/h (0 Bft) N 0,00 h -2,8 C -1,7 C 0,0 km/h (0 Bft)
15.03.2023 07:00 1,1 C 8,6 C 0,2 C 4,4 C 4,4 C 3,3 C 83 % 67 % 1013,9 hPa 0,0 l/m 0,1 km/h (0 Bft) N 0,83 h -1,5 C 4,4 C 0,3 km/h (0 Bft)
15.03.2023 08:00 1,9 C 8,4 C 1,2 C 2,3 C 2,3 C 0,4 C 80 % 61 % 1014,5 hPa 0,0 l/m 0,7 km/h (0 Bft) SW 0,00 h -1,2 C 2,3 C 2,7 km/h (1 Bft)
15.03.2023 09:00 2,2 C 8,3 C 1,8 C 2,9 C 2,9 C 0,7 C 79 % 60 % 1015,2 hPa 0,0 l/m 1,1 km/h (1 Bft) S-SO 0,00 h -1,1 C 2,9 C 3,0 km/h (1 Bft)
15.03.2023 10:00 2,7 C 8,2 C 2,5 C 3,3 C 3,3 C 0,6 C 79 % 61 % 1015,9 hPa 0,0 l/m 2,3 km/h (1 Bft) SW 0,00 h -0,6 C 3,3 C 3,1 km/h (1 Bft)
15.03.2023 11:00 3,2 C 8,1 C 3,3 C 4,3 C 4,3 C 1,1 C 80 % 62 % 1016,4 hPa 0,0 l/m 2,6 km/h (1 Bft) SW 0,00 h 0,0 C 4,2 C 4,3 km/h (1 Bft)
15.03.2023 12:00 3,7 C 8,0 C 4,3 C 5,8 C 5,8 C 2,0 C 79 % 61 % 1016,8 hPa 0,0 l/m 1,7 km/h (1 Bft) W-SW 0,00 h 0,4 C 5,8 C 2,9 km/h (1 Bft)
15.03.2023 13:00 3,6 C 8,0 C 3,4 C 5,2 C 5,2 C 1,6 C 79 % 62 % 1016,7 hPa 0,7 l/m 0,5 km/h (0 Bft) SW 0,00 h 0,4 C 5,2 C 1,1 km/h (1 Bft)
15.03.2023 14:00 5,3 C 7,9 C 4,9 C 8,9 C 8,9 C 3,7 C 73 % 57 % 1016,7 hPa 0,0 l/m 2,3 km/h (1 Bft) SW 0,58 h 0,7 C 8,9 C 3,0 km/h (1 Bft)
15.03.2023 15:00 5,7 C 7,9 C 4,6 C 8,4 C 8,4 C 2,8 C 63 % 49 % 1017,1 hPa 0,0 l/m 0,9 km/h (0 Bft) SW 0,25 h -0,7 C 8,4 C 1,9 km/h (1 Bft)
15.03.2023 16:00 5,6 C 7,8 C 4,1 C 6,5 C 6,5 C 1,0 C 59 % 46 % 1017,9 hPa 0,0 l/m 0,4 km/h (0 Bft) N 0,08 h -1,9 C 6,5 C 1,4 km/h (1 Bft)
15.03.2023 17:00 4,5 C 7,8 C 2,6 C 4,5 C 4,2 C 0,1 C 63 % 50 % 1018,4 hPa 0,0 l/m 0,1 km/h (0 Bft) N 0,00 h -2,0 C 4,2 C 0,0 km/h (0 Bft)
15.03.2023 18:00 3,3 C 7,8 C 1,4 C 2,8 C 1,7 C 0,0 C 67 % 51 % 1019,7 hPa 0,0 l/m 0,2 km/h (0 Bft) N 0,00 h -2,3 C 1,7 C 0,2 km/h (0 Bft)
15.03.2023 19:00 1,3 C 7,9 C -0,9 C 0,5 C -1,2 C 0,0 C 72 % 58 % 1020,3 hPa 0,0 l/m 0,0 km/h (0 Bft) N 0,00 h -3,1 C -1,2 C 0,0 km/h (0 Bft)
15.03.2023 20:00 0,5 C 7,8 C -1,3 C -0,2 C -1,5 C 0,0 C 78 % 61 % 1021,2 hPa 0,0 l/m 0,0 km/h (0 Bft) N 0,00 h -2,9 C -1,5 C 0,0 km/h (0 Bft)
15.03.2023 21:00 -0,8 C 8,0 C -2,7 C -1,5 C -2,9 C 0,0 C 80 % 64 % 1021,7 hPa 0,0 l/m 0,0 km/h (0 Bft) N 0,00 h -3,8 C -2,9 C 0,0 km/h (0 Bft)
15.03.2023 22:00 -1,3 C 8,0 C -3,0 C -1,9 C -3,1 C 0,0 C 83 % 65 % 1022,5 hPa 0,0 l/m 0,0 km/h (0 Bft) N 0,00 h -3,9 C -3,1 C 0,0 km/h (0 Bft)
15.03.2023 23:00 -1,8 C 7,9 C -3,4 C -2,3 C -3,5 C 0,0 C 84 % 65 % 1022,7 hPa 0,0 l/m 0,0 km/h (0 Bft) N 0,00 h -4,1 C -3,5 C 0,0 km/h (0 Bft)
16.03.2023 00:00 -1,9 C 7,9 C -3,6 C -2,4 C -3,4 C 0,0 C 86 % 65 % 1022,9 hPa 0,0 l/m 0,0 km/h (0 Bft) N 0,00 h -4,0 C -3,4 C 0,0 km/h (0 Bft)
16.03.2023 01:00 -2,3 C 7,8 C -4,0 C -2,8 C -3,8 C 0,0 C 86 % 66 % 1023,2 hPa 0,0 l/m 0,0 km/h (0 Bft) N 0,00 h -4,3 C -3,8 C 0,0 km/h (0 Bft)
16.03.2023 02:00 -2,5 C 7,7 C -4,3 C -3,1 C -4,2 C 0,0 C 87 % 65 % 1023,2 hPa 0,0 l/m 0,0 km/h (0 Bft) N 0,00 h -4,4 C -4,2 C 0,0 km/h (0 Bft)
16.03.2023 03:00 -3,0 C 7,6 C -4,5 C -3,5 C -4,6 C 0,0 C 87 % 65 % 1023,2 hPa 0,0 l/m 0,0 km/h (0 Bft) N 0,00 h -4,8 C -4,6 C 0,0 km/h (0 Bft)
16.03.2023 04:00 -3,3 C 7,5 C -4,7 C -3,8 C -4,7 C 0,0 C 87 % 64 % 1023,0 hPa 0,0 l/m 0,0 km/h (0 Bft) N 0,00 h -5,1 C -4,7 C 0,0 km/h (0 Bft)
16.03.2023 05:00 -3,8 C 7,4 C -5,1 C -4,4 C -5,5 C 0,0 C 88 % 62 % 1023,5 hPa 0,0 l/m 0,0 km/h (0 Bft) N 0,00 h -5,6 C -5,5 C 0,0 km/h (0 Bft)
16.03.2023 06:00 -4,1 C 7,3 C -5,3 C -4,4 C -5,2 C 0,2 C 88 % 62 % 1023,4 hPa 0,0 l/m 0,0 km/h (0 Bft) N 0,08 h -5,8 C -5,2 C 0,0 km/h (0 Bft)
16.03.2023 07:00 -2,6 C 7,2 C -3,9 C 2,5 C 2,5 C 5,1 C 89 % 64 % 1022,9 hPa 0,0 l/m 0,0 km/h (0 Bft) N 1,00 h -4,2 C 2,5 C 0,0 km/h (0 Bft)
16.03.2023 08:00 -1,3 C 7,0 C -2,2 C 4,1 C 4,1 C 5,4 C 89 % 68 % 1023,6 hPa 0,0 l/m 0,0 km/h (0 Bft) N 1,00 h -2,9 C 4,1 C 0,0 km/h (0 Bft)
16.03.2023 09:00 1,2 C 6,7 C 1,1 C 6,6 C 6,6 C 5,4 C 88 % 70 % 1024,1 hPa 0,0 l/m 0,2 km/h (0 Bft) N 0,83 h -0,6 C 6,6 C 1,1 km/h (1 Bft)
16.03.2023 10:00 4,3 C 6,6 C 2,6 C 7,1 C 7,1 C 2,8 C 76 % 59 % 1023,8 hPa 0,0 l/m 0,4 km/h (0 Bft) N 0,22 h 0,3 C 7,1 C 2,0 km/h (1 Bft)
16.03.2023 11:00 5,9 C 6,6 C 5,4 C 9,7 C 9,7 C 3,8 C 61 % 42 % 1023,5 hPa 0,0 l/m 0,6 km/h (0 Bft) S-SO 0,58 h -1,0 C 9,7 C 1,6 km/h (1 Bft)
16.03.2023 12:00 8,0 C 6,7 C 7,6 C 14,8 C 14,8 C 6,7 C 54 % 35 % 1023,3 hPa 0,0 l/m 0,5 km/h (0 Bft) W-SW 1,00 h -0,7 C 14,8 C 1,7 km/h (1 Bft)
16.03.2023 13:00 9,1 C 6,9 C 8,0 C 15,8 C 15,8 C 6,7 C 49 % 33 % 1022,8 hPa 0,0 l/m 0,7 km/h (0 Bft) NO 1,00 h -1,0 C 15,8 C 1,5 km/h (1 Bft)
16.03.2023 14:00 9,3 C 7,0 C 8,0 C 15,6 C 15,6 C 6,3 C 49 % 32 % 1022,1 hPa 0,0 l/m 1,1 km/h (1 Bft) O-NO 1,00 h -0,9 C 15,6 C 1,8 km/h (1 Bft)
16.03.2023 15:00 9,7 C 7,1 C 8,3 C 15,2 C 15,2 C 5,4 C 48 % 33 % 1021,9 hPa 0,0 l/m 1,0 km/h (0 Bft) NO 1,00 h -0,7 C 15,2 C 1,8 km/h (1 Bft)
16.03.2023 16:00 9,0 C 7,3 C 7,5 C 11,4 C 11,4 C 2,3 C 51 % 34 % 1021,6 hPa 0,0 l/m 0,5 km/h (0 Bft) O-NO 0,25 h -0,5 C 11,4 C 0,7 km/h (0 Bft)
16.03.2023 17:00 7,4 C 7,5 C 5,9 C 7,5 C 7,3 C 0,2 C 54 % 36 % 1021,0 hPa 0,0 l/m 0,2 km/h (0 Bft) N 0,00 h -1,2 C 7,3 C 0,7 km/h (0 Bft)
16.03.2023 18:00 6,1 C 7,5 C 4,5 C 5,9 C 5,5 C 0,0 C 58 % 39 % 1020,9 hPa 0,0 l/m 0,0 km/h (0 Bft) N 0,00 h -1,6 C 5,5 C 0,0 km/h (0 Bft)
16.03.2023 19:00 5,4 C 7,7 C 3,8 C 5,2 C 4,9 C 0,0 C 63 % 43 % 1020,4 hPa 0,0 l/m 0,0 km/h (0 Bft) N 0,00 h -1,2 C 4,9 C 0,0 km/h (0 Bft)
16.03.2023 20:00 4,2 C 7,7 C 2,1 C 3,7 C 2,8 C 0,0 C 67 % 50 % 1020,8 hPa 0,0 l/m 0,0 km/h (0 Bft) N 0,00 h -1,5 C 2,8 C 0,0 km/h (0 Bft)
16.03.2023 21:00 3,4 C 7,7 C 1,7 C 3,2 C 2,7 C 0,0 C 70 % 52 % 1020,6 hPa 0,0 l/m 0,0 km/h (0 Bft) N 0,00 h -1,6 C 2,7 C 0,0 km/h (0 Bft)
16.03.2023 22:00 3,4 C 7,7 C 1,4 C 3,1 C 2,6 C 0,0 C 68 % 49 % 1019,9 hPa 0,0 l/m 0,0 km/h (0 Bft) N 0,00 h -1,9 C 2,6 C 0,0 km/h (0 Bft)
16.03.2023 23:00 3,2 C 7,7 C 0,7 C 2,8 C 1,9 C 0,0 C 66 % 48 % 1019,5 hPa 0,0 l/m 0,0 km/h (0 Bft) N 0,00 h -2,5 C 1,9 C 0,0 km/h (0 Bft)
17.03.2023 00:00 2,2 C 7,6 C -0,2 C 1,9 C 1,2 C 0,0 C 67 % 49 % 1018,8 hPa 0,0 l/m 0,0 km/h (0 Bft) N 0,00 h -3,2 C 1,2 C 0,0 km/h (0 Bft)
17.03.2023 01:00 1,1 C 7,7 C -0,9 C 0,7 C 0,1 C 0,0 C 72 % 54 % 1018,4 hPa 0,0 l/m 0,0 km/h (0 Bft) N 0,00 h -3,4 C 0,1 C 0,0 km/h (0 Bft)
17.03.2023 02:00 0,2 C 7,7 C -1,0 C -0,1 C -0,7 C 0,0 C 77 % 59 % 1017,3 hPa 0,0 l/m 0,0 km/h (0 Bft) N 0,00 h -3,3 C -0,7 C 0,0 km/h (0 Bft)
17.03.2023 03:00 -0,0 C 7,5 C -1,1 C -0,2 C -0,5 C 0,0 C 79 % 58 % 1016,6 hPa 0,0 l/m 0,0 km/h (0 Bft) N 0,00 h -3,2 C -0,5 C 0,0 km/h (0 Bft)
17.03.2023 04:00 0,1 C 7,4 C -1,1 C 0,1 C -0,1 C 0,1 C 80 % 58 % 1016,7 hPa 0,0 l/m 0,0 km/h (0 Bft) N 0,00 h -3,0 C -0,1 C 0,0 km/h (0 Bft)
17.03.2023 05:00 0,4 C 7,4 C -0,5 C 0,6 C 0,5 C 0,2 C 80 % 59 % 1016,5 hPa 0,0 l/m 0,0 km/h (0 Bft) N 0,00 h -2,7 C 0,5 C 0,0 km/h (0 Bft)
17.03.2023 06:00 1,1 C 7,3 C -0,3 C 1,3 C 1,3 C 0,3 C 79 % 57 % 1016,2 hPa 0,0 l/m 0,0 km/h (0 Bft) N 0,00 h -2,2 C 1,3 C 0,0 km/h (0 Bft)
17.03.2023 07:00 4,1 C 7,3 C 2,5 C 7,1 C 7,1 C 3,0 C 69 % 47 % 1016,3 hPa 0,0 l/m 0,0 km/h (0 Bft) N 1,00 h -1,1 C 7,1 C 0,0 km/h (0 Bft)
17.03.2023 08:00 6,5 C 7,2 C 5,3 C 10,9 C 10,9 C 4,4 C 57 % 37 % 1015,8 hPa 0,0 l/m 0,1 km/h (0 Bft) N 1,00 h -1,4 C 10,9 C 0,3 km/h (0 Bft)
17.03.2023 09:00 8,2 C 7,2 C 8,0 C 12,5 C 12,5 C 4,3 C 51 % 31 % 1015,7 hPa 0,0 l/m 0,4 km/h (0 Bft) O-NO 0,83 h -1,3 C 12,5 C 1,1 km/h (1 Bft)
17.03.2023 10:00 10,7 C 7,2 C 9,6 C 13,6 C 13,6 C 2,8 C 46 % 31 % 1015,7 hPa 0,0 l/m 1,0 km/h (0 Bft) O-NO 0,25 h -0,3 C 13,6 C 1,9 km/h (1 Bft)
17.03.2023 11:00 13,4 C 7,4 C 13,2 C 16,9 C 16,9 C 3,5 C 42 % 31 % 1015,4 hPa 0,0 l/m 0,9 km/h (0 Bft) O-NO 0,58 h 0,7 C 16,9 C 1,9 km/h (1 Bft)
17.03.2023 12:00 15,2 C 7,6 C 15,1 C 20,6 C 20,6 C 5,4 C 39 % 29 % 1015,0 hPa 0,0 l/m 2,1 km/h (1 Bft) NO 1,00 h 1,3 C 20,6 C 3,5 km/h (1 Bft)
17.03.2023 13:00 15,3 C 7,9 C 15,2 C 18,5 C 18,5 C 3,2 C 37 % 28 % 1014,5 hPa 0,0 l/m 1,8 km/h (1 Bft) O-NO 0,42 h 0,6 C 18,5 C 3,2 km/h (1 Bft)
17.03.2023 14:00 16,0 C 8,0 C 15,2 C 19,2 C 19,2 C 3,2 C 36 % 26 % 1014,2 hPa 0,0 l/m 0,3 km/h (0 Bft) N 0,42 h 0,9 C 19,2 C 0,5 km/h (0 Bft)
17.03.2023 15:00 16,1 C 8,4 C 14,9 C 19,3 C 19,3 C 3,2 C 36 % 27 % 1013,7 hPa 0,0 l/m 0,7 km/h (0 Bft) O-NO 0,67 h 1,0 C 19,3 C 1,4 km/h (1 Bft)
17.03.2023 16:00 14,5 C 8,5 C 13,2 C 15,1 C 15,1 C 0,6 C 40 % 29 % 1013,5 hPa 0,0 l/m 0,5 km/h (0 Bft) O-NO 0,00 h 1,1 C 15,1 C 0,9 km/h (0 Bft)
17.03.2023 17:00 12,7 C 8,7 C 11,4 C 13,2 C 13,2 C 0,5 C 45 % 32 % 1013,3 hPa 0,0 l/m 0,2 km/h (0 Bft) N 0,00 h 1,2 C 13,2 C 0,4 km/h (0 Bft)
17.03.2023 18:00 11,1 C 8,9 C 9,0 C 10,8 C 10,1 C 0,0 C 49 % 35 % 1013,3 hPa 0,0 l/m 0,1 km/h (0 Bft) N 0,00 h 0,8 C 10,1 C 0,3 km/h (0 Bft)
17.03.2023 19:00 10,0 C 8,9 C 7,8 C 9,6 C 8,8 C 0,0 C 52 % 39 % 1013,5 hPa 0,0 l/m 0,0 km/h (0 Bft) N 0,00 h 0,7 C 8,8 C 0,0 km/h (0 Bft)
17.03.2023 20:00 9,7 C 9,0 C 7,6 C 9,4 C 8,7 C 0,0 C 53 % 39 % 1013,2 hPa 0,0 l/m 0,3 km/h (0 Bft) N 0,00 h 0,6 C 8,7 C 0,8 km/h (0 Bft)
17.03.2023 21:00 9,6 C 9,0 C 7,3 C 9,3 C 8,6 C 0,0 C 53 % 39 % 1013,5 hPa 0,0 l/m 0,2 km/h (0 Bft) N 0,00 h 0,5 C 8,6 C 0,0 km/h (0 Bft)
17.03.2023 22:00 9,5 C 9,0 C 7,6 C 9,3 C 8,8 C 0,0 C 54 % 40 % 1013,4 hPa 0,0 l/m 0,4 km/h (0 Bft) S 0,00 h 0,7 C 8,8 C 1,0 km/h (0 Bft)
17.03.2023 23:00 9,5 C 9,2 C 7,7 C 9,3 C 8,9 C 0,0 C 54 % 39 % 1013,2 hPa 0,0 l/m 0,3 km/h (0 Bft) N 0,00 h 0,7 C 8,9 C 0,3 km/h (0 Bft)
18.03.2023 00:00 8,9 C 9,2 C 7,3 C 8,7 C 8,2 C 0,0 C 55 % 39 % 1013,3 hPa 0,0 l/m 0,1 km/h (0 Bft) N 0,00 h 0,4 C 8,2 C 0,6 km/h (0 Bft)
18.03.2023 01:00 8,4 C 9,1 C 6,9 C 8,2 C 7,8 C 0,0 C 55 % 38 % 1013,1 hPa 0,0 l/m 0,1 km/h (0 Bft) N 0,00 h -0,0 C 7,8 C 0,1 km/h (0 Bft)
18.03.2023 02:00 7,8 C 9,1 C 6,4 C 7,6 C 7,1 C 0,0 C 56 % 38 % 1013,2 hPa 0,0 l/m 0,0 km/h (0 Bft) N 0,00 h -0,4 C 7,1 C 0,0 km/h (0 Bft)
18.03.2023 03:00 7,3 C 9,1 C 6,1 C 7,1 C 6,7 C 0,0 C 58 % 40 % 1013,4 hPa 0,0 l/m 0,0 km/h (0 Bft) N 0,00 h -0,4 C 6,7 C 0,0 km/h (0 Bft)
18.03.2023 04:00 6,4 C 9,1 C 4,7 C 6,2 C 5,6 C 0,0 C 60 % 42 % 1013,9 hPa 0,0 l/m 0,0 km/h (0 Bft) N 0,00 h -0,7 C 5,6 C 0,0 km/h (0 Bft)
18.03.2023 05:00 4,7 C 9,0 C 2,8 C 4,4 C 3,8 C 0,0 C 67 % 50 % 1014,2 hPa 0,0 l/m 0,0 km/h (0 Bft) N 0,00 h -0,9 C 3,8 C 0,0 km/h (0 Bft)
18.03.2023 06:00 3,8 C 9,1 C 2,6 C 3,7 C 3,4 C 0,1 C 73 % 57 % 1014,4 hPa 0,0 l/m 0,0 km/h (0 Bft) N 0,00 h -0,6 C 3,4 C 0,0 km/h (0 Bft)
18.03.2023 07:00 4,4 C 9,0 C 4,1 C 7,2 C 7,2 C 2,8 C 76 % 57 % 1014,7 hPa 0,0 l/m 0,0 km/h (0 Bft) N 1,00 h 0,6 C 7,2 C 0,0 km/h (0 Bft)
18.03.2023 08:00 6,7 C 8,9 C 6,4 C 10,4 C 10,4 C 3,6 C 73 % 55 % 1014,8 hPa 0,0 l/m 0,0 km/h (0 Bft) N 0,75 h 2,2 C 10,4 C 0,0 km/h (0 Bft)
18.03.2023 09:00 9,9 C 8,9 C 10,4 C 15,7 C 15,7 C 5,7 C 67 % 51 % 1015,2 hPa 0,0 l/m 0,1 km/h (0 Bft) S-SO 1,00 h 4,1 C 15,7 C 0,8 km/h (0 Bft)
18.03.2023 10:00 13,8 C 8,9 C 14,2 C 17,5 C 17,5 C 3,7 C 59 % 45 % 1015,2 hPa 0,0 l/m 1,6 km/h (1 Bft) SW 0,83 h 6,0 C 17,5 C 2,2 km/h (1 Bft)
18.03.2023 11:00 15,2 C 9,0 C 15,6 C 18,6 C 18,6 C 3,5 C 58 % 45 % 1015,4 hPa 0,0 l/m 1,6 km/h (1 Bft) SW 0,58 h 6,9 C 18,6 C 1,9 km/h (1 Bft)
18.03.2023 12:00 16,3 C 9,2 C 16,6 C 20,1 C 20,1 C 3,8 C 57 % 44 % 1015,3 hPa 0,0 l/m 1,6 km/h (1 Bft) SW 0,67 h 7,7 C 20,1 C 2,0 km/h (1 Bft)
18.03.2023 13:00 16,3 C 9,4 C 16,6 C 19,1 C 19,1 C 2,8 C 57 % 45 % 1015,2 hPa 0,0 l/m 0,7 km/h (0 Bft) S-SW 0,33 h 7,7 C 19,1 C 2,1 km/h (1 Bft)
18.03.2023 14:00 17,5 C 9,7 C 16,2 C 21,1 C 21,1 C 3,6 C 56 % 47 % 1015,1 hPa 0,0 l/m 0,4 km/h (0 Bft) N 0,42 h 8,6 C 21,1 C 0,8 km/h (0 Bft)
18.03.2023 15:00 18,6 C 10,0 C 16,3 C 23,9 C 23,9 C 5,2 C 53 % 48 % 1014,9 hPa 0,0 l/m 0,5 km/h (0 Bft) N 0,92 h 8,8 C 23,9 C 0,4 km/h (0 Bft)
18.03.2023 16:00 18,2 C 10,2 C 15,6 C 20,5 C 20,5 C 2,3 C 54 % 49 % 1014,2 hPa 0,0 l/m 0,2 km/h (0 Bft) N 0,42 h 8,9 C 20,5 C 0,2 km/h (0 Bft)
18.03.2023 17:00 16,7 C 10,5 C 14,6 C 17,5 C 17,4 C 0,8 C 59 % 51 % 1014,2 hPa 0,0 l/m 1,1 km/h (1 Bft) NO 0,17 h 8,5 C 17,4 C 1,5 km/h (1 Bft)
18.03.2023 18:00 14,1 C 10,6 C 11,9 C 13,9 C 13,5 C 0,0 C 62 % 53 % 1014,5 hPa 0,0 l/m 1,7 km/h (1 Bft) O-NO 0,00 h 7,0 C 13,5 C 2,2 km/h (1 Bft)
18.03.2023 19:00 11,5 C 10,7 C 9,3 C 11,1 C 10,3 C 0,0 C 64 % 54 % 1014,9 hPa 0,0 l/m 0,2 km/h (0 Bft) N 0,00 h 4,8 C 10,3 C 0,3 km/h (0 Bft)
18.03.2023 20:00 9,9 C 10,6 C 7,9 C 9,7 C 9,2 C 0,0 C 67 % 55 % 1015,2 hPa 0,0 l/m 0,0 km/h (0 Bft) N 0,00 h 4,1 C 9,2 C 0,0 km/h (0 Bft)
18.03.2023 21:00 9,3 C 10,6 C 7,4 C 9,1 C 8,6 C 0,0 C 68 % 56 % 1015,4 hPa 0,0 l/m 0,0 km/h (0 Bft) N 0,00 h 3,8 C 8,6 C 0,0 km/h (0 Bft)
18.03.2023 22:00 8,2 C 10,5 C 6,3 C 8,0 C 7,5 C 0,0 C 70 % 57 % 1015,6 hPa 0,0 l/m 0,0 km/h (0 Bft) N 0,00 h 3,1 C 7,5 C 0,0 km/h (0 Bft)
18.03.2023 23:00 7,5 C 10,4 C 6,2 C 7,5 C 7,4 C 0,1 C 74 % 60 % 1015,4 hPa 0,0 l/m 0,0 km/h (0 Bft) N 0,00 h 3,1 C 7,4 C 0,0 km/h (0 Bft)
19.03.2023 00:00 7,9 C 10,3 C 6,4 C 7,8 C 7,6 C 0,0 C 72 % 58 % 1015,4 hPa 0,0 l/m 0,0 km/h (0 Bft) N 0,00 h 3,3 C 7,6 C 0,0 km/h (0 Bft)
19.03.2023 01:00 7,4 C 10,3 C 5,9 C 7,4 C 7,3 C 0,0 C 73 % 59 % 1015,3 hPa 0,0 l/m 0,0 km/h (0 Bft) N 0,00 h 2,9 C 7,3 C 0,0 km/h (0 Bft)
19.03.2023 02:00 6,6 C 10,3 C 4,8 C 6,5 C 6,3 C 0,0 C 75 % 60 % 1015,2 hPa 0,0 l/m 0,0 km/h (0 Bft) N 0,00 h 2,4 C 6,3 C 0,0 km/h (0 Bft)
19.03.2023 03:00 6,0 C 10,2 C 4,4 C 5,9 C 5,7 C 0,0 C 77 % 63 % 1015,1 hPa 0,0 l/m 0,0 km/h (0 Bft) N 0,00 h 2,3 C 5,7 C 0,0 km/h (0 Bft)
19.03.2023 04:00 5,4 C 10,1 C 4,5 C 5,5 C 5,4 C 0,1 C 80 % 64 % 1015,7 hPa 0,0 l/m 0,0 km/h (0 Bft) N 0,00 h 2,2 C 5,4 C 0,0 km/h (0 Bft)
19.03.2023 05:00 5,0 C 10,1 C 3,7 C 4,8 C 4,5 C 0,0 C 81 % 65 % 1015,4 hPa 0,0 l/m 0,0 km/h (0 Bft) N 0,00 h 2,0 C 4,5 C 0,0 km/h (0 Bft)
19.03.2023 06:00 4,2 C 10,1 C 2,9 C 4,0 C 3,5 C 0,0 C 82 % 67 % 1015,6 hPa 0,0 l/m 0,0 km/h (0 Bft) N 0,00 h 1,4 C 3,5 C 0,0 km/h (0 Bft)
19.03.2023 07:00 5,3 C 9,9 C 5,0 C 9,2 C 9,2 C 4,0 C 85 % 70 % 1015,9 hPa 0,0 l/m 0,0 km/h (0 Bft) N 0,75 h 2,9 C 9,2 C 0,0 km/h (0 Bft)
19.03.2023 08:00 7,8 C 9,7 C 7,9 C 11,2 C 11,2 C 3,4 C 82 % 65 % 1016,4 hPa 0,0 l/m 0,0 km/h (0 Bft) N 0,58 h 4,9 C 11,2 C 0,0 km/h (0 Bft)
19.03.2023 09:00 10,0 C 9,7 C 9,9 C 12,8 C 12,8 C 2,7 C 74 % 58 % 1016,3 hPa 0,0 l/m 0,6 km/h (0 Bft) S 0,00 h 5,6 C 12,8 C 1,2 km/h (1 Bft)
19.03.2023 10:00 13,0 C 9,8 C 13,0 C 16,3 C 16,3 C 3,3 C 66 % 51 % 1016,5 hPa 0,0 l/m 2,3 km/h (1 Bft) O-SO 0,42 h 6,9 C 16,3 C 3,8 km/h (1 Bft)
19.03.2023 11:00 15,0 C 10,1 C 15,6 C 18,3 C 18,3 C 3,3 C 62 % 49 % 1016,4 hPa 0,0 l/m 3,4 km/h (1 Bft) SW 0,58 h 7,8 C 18,3 C 4,8 km/h (1 Bft)
19.03.2023 12:00 16,5 C 10,3 C 16,7 C 20,1 C 20,1 C 3,6 C 58 % 47 % 1016,5 hPa 0,0 l/m 4,0 km/h (1 Bft) SW 0,92 h 8,2 C 20,1 C 5,2 km/h (1 Bft)
19.03.2023 13:00 17,0 C 10,5 C 16,8 C 20,7 C 20,7 C 3,7 C 57 % 47 % 1016,4 hPa 0,0 l/m 3,6 km/h (1 Bft) SW 0,75 h 8,4 C 20,7 C 6,0 km/h (2 Bft)
19.03.2023 14:00 15,4 C 10,9 C 15,4 C 16,9 C 16,9 C 1,5 C 62 % 50 % 1016,4 hPa 0,0 l/m 7,0 km/h (2 Bft) W-SW 0,00 h 8,2 C 16,9 C 8,1 km/h (2 Bft)
19.03.2023 15:00 14,1 C 11,0 C 14,2 C 15,2 C 15,2 C 1,1 C 69 % 56 % 1016,6 hPa 0,0 l/m 5,9 km/h (2 Bft) SW 0,00 h 8,4 C 15,2 C 8,1 km/h (2 Bft)
19.03.2023 16:00 12,8 C 11,2 C 12,2 C 13,0 C 12,9 C 0,2 C 73 % 61 % 1016,8 hPa 0,0 l/m 0,1 km/h (0 Bft) N 0,00 h 8,0 C 12,9 C 0,0 km/h (0 Bft)
19.03.2023 17:00 12,5 C 11,3 C 11,7 C 12,6 C 12,6 C 0,1 C 74 % 64 % 1016,9 hPa 0,0 l/m 0,1 km/h (0 Bft) N 0,00 h 8,0 C 12,6 C 0,0 km/h (0 Bft)
19.03.2023 18:00 11,6 C 11,3 C 9,6 C 11,3 C 10,8 C 0,0 C 75 % 65 % 1017,3 hPa 0,0 l/m 0,0 km/h (0 Bft) N 0,00 h 7,2 C 10,8 C 0,0 km/h (0 Bft)
19.03.2023 19:00 9,6 C 11,5 C 7,8 C 9,3 C 8,7 C 0,0 C 77 % 70 % 1016,9 hPa 0,0 l/m 0,0 km/h (0 Bft) N 0,00 h 5,8 C 8,7 C 0,0 km/h (0 Bft)
19.03.2023 20:00 8,6 C 11,7 C 6,9 C 8,3 C 7,7 C 0,0 C 81 % 71 % 1017,6 hPa 0,0 l/m 0,0 km/h (0 Bft) N 0,00 h 5,6 C 7,7 C 0,0 km/h (0 Bft)
19.03.2023 21:00 7,4 C 11,7 C 5,5 C 7,1 C 6,4 C 0,0 C 83 % 72 % 1017,8 hPa 0,0 l/m 0,0 km/h (0 Bft) N 0,00 h 4,8 C 6,4 C 0,0 km/h (0 Bft)
19.03.2023 22:00 7,2 C 11,6 C 6,0 C 7,1 C 7,0 C 0,0 C 85 % 76 % 1017,5 hPa 0,0 l/m 0,0 km/h (0 Bft) N 0,00 h 4,9 C 7,0 C 0,0 km/h (0 Bft)
19.03.2023 23:00 7,6 C 11,4 C 6,3 C 7,5 C 7,4 C 0,0 C 86 % 76 % 1017,9 hPa 0,0 l/m 0,0 km/h (0 Bft) N 0,00 h 5,4 C 7,4 C 0,0 km/h (0 Bft)
Min-Datum _ 16.03.23 16.03.23 16.03.23 16.03.23 16.03.23 13.03.23 17.03.23 17.03.23 14.03.23 - 14.03.23 - - 16.03.23 16.03.23 13.03.23
_ Min-Zeit 06:05 09:40 06:11 06:05 06:11 00:11 13:39 14:14 06:20 - 00:50 - - 06:05 06:11 00:00
Minimum _ -4,2 C 6,6 C -5,5 C -4,8 C -6,0 C 0,0 C 35 % 25 % 993,8 hPa - 0,0 km/h (0 Bft) - - -5,9 C -6,0 C 0,0 km/h (0 Bft)
Max-Datum _ 18.03.23 19.03.23 14.03.23 18.03.23 18.03.23 16.03.23 14.03.23 13.03.23 16.03.23 13.03.23 13.03.23 - 16.03.23 13.03.23 18.03.23 14.03.23
_ Max-Zeit 14:59 20:11 09:35 15:04 15:04 09:25 00:25 20:05 09:20 20:10 12:24 - 08:27 13:55 15:04 17:05
Maximum _ 19,3 C 11,7 C 19,9 C 25,3 C 25,3 C 8,8 C 89 % 90 % 1024,2 hPa 2,7 l/m 15,3 km/h
SW (3 Bft)
- 0,27 h 10,6 C 25,3 C 36,7 km/h
W-SW (5 Bft)
Durchschnitt _ 7,7 C 9,0 C 6,7 C 8,7 C 8,4 C 1,1 C 71 % 57 % 1012,2 hPa #10,3 l/m 1,7 km/h (1 Bft) SW #28:08 h 2,6 C 8,3 C 2,7 km/h (1 Bft)
2023 www.wetterstation-wechselburg.de